sensor_id;sensor_type;location;lat;lon;timestamp;pressure;altitude;pressure_sealevel;temperature;humidity
21760;BME280;11041;50.854;20.580;2023-02-13T00:00:23;100612.91;;;0.35;93.53
21760;BME280;11041;50.854;20.580;2023-02-13T00:03:10;100599.84;;;0.39;94.39
21760;BME280;11041;50.854;20.580;2023-02-13T00:05:36;100604.84;;;0.49;94.10
21760;BME280;11041;50.854;20.580;2023-02-13T00:08:03;100600.28;;;0.49;94.01
21760;BME280;11041;50.854;20.580;2023-02-13T00:10:29;100606.34;;;0.58;94.94
21760;BME280;11041;50.854;20.580;2023-02-13T00:12:56;100591.97;;;0.57;95.12
21760;BME280;11041;50.854;20.580;2023-02-13T00:15:22;100592.19;;;0.69;95.35
21760;BME280;11041;50.854;20.580;2023-02-13T00:17:48;100597.41;;;0.84;95.83
21760;BME280;11041;50.854;20.580;2023-02-13T00:20:15;100596.41;;;0.92;95.57
21760;BME280;11041;50.854;20.580;2023-02-13T00:22:41;100582.03;;;0.91;95.81
21760;BME280;11041;50.854;20.580;2023-02-13T00:25:08;100586.19;;;1.00;95.61
21760;BME280;11041;50.854;20.580;2023-02-13T00:27:35;100568.31;;;1.06;95.30
21760;BME280;11041;50.854;20.580;2023-02-13T00:30:03;100572.88;;;1.12;95.42
21760;BME280;11041;50.854;20.580;2023-02-13T00:32:29;100571.63;;;1.15;95.29
21760;BME280;11041;50.854;20.580;2023-02-13T00:34:57;100575.16;;;1.22;95.23
21760;BME280;11041;50.854;20.580;2023-02-13T00:37:24;100569.75;;;1.22;95.78
21760;BME280;11041;50.854;20.580;2023-02-13T00:39:51;100572.66;;;1.27;96.03
21760;BME280;11041;50.854;20.580;2023-02-13T00:42:18;100561.63;;;1.28;95.49
21760;BME280;11041;50.854;20.580;2023-02-13T00:44:45;100561.44;;;1.30;95.91
21760;BME280;11041;50.854;20.580;2023-02-13T00:47:11;100566.84;;;1.30;95.94
21760;BME280;11041;50.854;20.580;2023-02-13T00:49:40;100564.34;;;1.35;95.67
21760;BME280;11041;50.854;20.580;2023-02-13T00:52:07;100558.91;;;1.35;95.75
21760;BME280;11041;50.854;20.580;2023-02-13T00:54:33;100554.94;;;1.38;95.97
21760;BME280;11041;50.854;20.580;2023-02-13T00:56:59;100555.59;;;1.33;96.07
21760;BME280;11041;50.854;20.580;2023-02-13T00:59:26;100544.75;;;1.33;96.13
21760;BME280;11041;50.854;20.580;2023-02-13T01:01:52;100542.03;;;1.33;96.42
21760;BME280;11041;50.854;20.580;2023-02-13T01:04:19;100544.50;;;1.41;96.56
21760;BME280;11041;50.854;20.580;2023-02-13T01:06:45;100543.28;;;1.37;96.47
21760;BME280;11041;50.854;20.580;2023-02-13T01:09:12;100536.00;;;1.31;97.23
21760;BME280;11041;50.854;20.580;2023-02-13T01:11:38;100542.88;;;1.34;97.42
21760;BME280;11041;50.854;20.580;2023-02-13T01:14:05;100548.91;;;1.36;97.27
21760;BME280;11041;50.854;20.580;2023-02-13T01:16:32;100538.50;;;1.26;97.20
21760;BME280;11041;50.854;20.580;2023-02-13T01:18:58;100533.69;;;1.35;97.06
21760;BME280;11041;50.854;20.580;2023-02-13T01:21:25;100540.97;;;1.41;97.35
21760;BME280;11041;50.854;20.580;2023-02-13T01:23:51;100539.94;;;1.42;97.37
21760;BME280;11041;50.854;20.580;2023-02-13T01:26:22;100550.16;;;1.40;97.42
21760;BME280;11041;50.854;20.580;2023-02-13T01:28:53;100543.25;;;1.44;97.47
21760;BME280;11041;50.854;20.580;2023-02-13T01:31:21;100547.41;;;1.46;97.55
21760;BME280;11041;50.854;20.580;2023-02-13T01:33:47;100547.66;;;1.45;97.22
21760;BME280;11041;50.854;20.580;2023-02-13T01:36:14;100535.38;;;1.42;97.69
21760;BME280;11041;50.854;20.580;2023-02-13T01:38:41;100537.44;;;1.40;97.68
21760;BME280;11041;50.854;20.580;2023-02-13T01:41:09;100539.09;;;1.41;98.26
21760;BME280;11041;50.854;20.580;2023-02-13T01:43:54;100531.59;;;1.43;98.05
21760;BME280;11041;50.854;20.580;2023-02-13T01:46:36;100535.13;;;1.44;97.87
21760;BME280;11041;50.854;20.580;2023-02-13T01:49:17;100535.56;;;1.47;98.25
21760;BME280;11041;50.854;20.580;2023-02-13T01:51:48;100524.09;;;1.45;98.04
21760;BME280;11041;50.854;20.580;2023-02-13T01:54:24;100529.69;;;1.51;97.56
21760;BME280;11041;50.854;20.580;2023-02-13T01:57:20;100531.38;;;1.52;98.31
21760;BME280;11041;50.854;20.580;2023-02-13T02:00:14;100531.59;;;1.50;98.50
21760;BME280;11041;50.854;20.580;2023-02-13T02:02:57;100532.63;;;1.49;98.14
21760;BME280;11041;50.854;20.580;2023-02-13T02:05:28;100535.31;;;1.56;97.89
21760;BME280;11041;50.854;20.580;2023-02-13T02:07:57;100530.31;;;1.53;97.93
21760;BME280;11041;50.854;20.580;2023-02-13T02:10:26;100520.50;;;1.58;98.14
21760;BME280;11041;50.854;20.580;2023-02-13T02:13:17;100518.03;;;1.57;98.10
21760;BME280;11041;50.854;20.580;2023-02-13T02:15:46;100529.47;;;1.59;98.47
21760;BME280;11041;50.854;20.580;2023-02-13T02:18:23;100523.44;;;1.57;98.31
21760;BME280;11041;50.854;20.580;2023-02-13T02:24:23;100509.47;;;1.53;98.68
21760;BME280;11041;50.854;20.580;2023-02-13T02:36:53;100510.34;;;1.47;100.00
21760;BME280;11041;50.854;20.580;2023-02-13T02:39:54;100514.50;;;1.49;100.00
21760;BME280;11041;50.854;20.580;2023-02-13T02:45:08;100514.91;;;1.46;100.00
21760;BME280;11041;50.854;20.580;2023-02-13T02:51:26;100517.19;;;1.56;100.00
21760;BME280;11041;50.854;20.580;2023-02-13T02:54:06;100522.41;;;1.51;100.00
21760;BME280;11041;50.854;20.580;2023-02-13T02:57:02;100516.97;;;1.51;100.00
21760;BME280;11041;50.854;20.580;2023-02-13T02:59:33;100528.63;;;1.58;100.00
21760;BME280;11041;50.854;20.580;2023-02-13T03:02:21;100535.94;;;1.64;100.00
21760;BME280;11041;50.854;20.580;2023-02-13T03:05:29;100535.31;;;1.62;100.00
21760;BME280;11041;50.854;20.580;2023-02-13T03:08:17;100530.94;;;1.61;100.00
21760;BME280;11041;50.854;20.580;2023-02-13T03:11:06;100529.25;;;1.67;100.00
21760;BME280;11041;50.854;20.580;2023-02-13T03:14:00;100522.59;;;1.63;100.00
21760;BME280;11041;50.854;20.580;2023-02-13T03:16:29;100533.22;;;1.64;100.00
21760;BME280;11041;50.854;20.580;2023-02-13T03:23:25;100533.22;;;1.64;100.00
21760;BME280;11041;50.854;20.580;2023-02-13T03:38:56;100520.66;;;1.77;100.00
21760;BME280;11041;50.854;20.580;2023-02-13T03:41:37;100523.56;;;1.82;100.00
21760;BME280;11041;50.854;20.580;2023-02-13T03:46:52;100514.81;;;1.80;100.00
21760;BME280;11041;50.854;20.580;2023-02-13T03:49:33;100514.44;;;1.76;100.00
21760;BME280;11041;50.854;20.580;2023-02-13T03:55:25;100500.19;;;1.87;100.00
21760;BME280;11041;50.854;20.580;2023-02-13T03:58:23;100511.66;;;1.89;100.00
21760;BME280;11041;50.854;20.580;2023-02-13T04:01:15;100507.91;;;1.90;100.00
21760;BME280;11041;50.854;20.580;2023-02-13T04:06:26;100509.31;;;2.00;100.00
21760;BME280;11041;50.854;20.580;2023-02-13T04:08:55;100497.06;;;1.90;100.00
21760;BME280;11041;50.854;20.580;2023-02-13T04:11:31;100499.34;;;1.87;100.00
21760;BME280;11041;50.854;20.580;2023-02-13T04:14:27;100503.50;;;1.89;100.00
21760;BME280;11041;50.854;20.580;2023-02-13T04:17:16;100508.53;;;1.92;100.00
21760;BME280;11041;50.854;20.580;2023-02-13T04:19:45;100512.28;;;1.91;100.00
21760;BME280;11041;50.854;20.580;2023-02-13T04:22:13;100512.44;;;1.97;100.00
21760;BME280;11041;50.854;20.580;2023-02-13T04:24:40;100511.81;;;1.95;100.00
21760;BME280;11041;50.854;20.580;2023-02-13T04:27:08;100513.94;;;1.92;100.00
21760;BME280;11041;50.854;20.580;2023-02-13T04:29:36;100515.22;;;1.83;100.00
21760;BME280;11041;50.854;20.580;2023-02-13T04:32:02;100523.53;;;1.88;100.00
21760;BME280;11041;50.854;20.580;2023-02-13T04:34:29;100523.53;;;1.88;100.00
21760;BME280;11041;50.854;20.580;2023-02-13T04:36:55;100520.84;;;1.88;100.00
21760;BME280;11041;50.854;20.580;2023-02-13T04:39:22;100520.22;;;1.86;100.00
21760;BME280;11041;50.854;20.580;2023-02-13T04:41:48;100526.25;;;1.95;100.00
21760;BME280;11041;50.854;20.580;2023-02-13T04:44:15;100525.00;;;1.91;100.00
21760;BME280;11041;50.854;20.580;2023-02-13T04:46:41;100528.97;;;1.88;100.00
21760;BME280;11041;50.854;20.580;2023-02-13T04:49:10;100522.22;;;2.04;100.00
21760;BME280;11041;50.854;20.580;2023-02-13T04:51:36;100523.91;;;1.99;100.00
21760;BME280;11041;50.854;20.580;2023-02-13T04:54:03;100527.88;;;2.03;100.00
21760;BME280;11041;50.854;20.580;2023-02-13T04:56:29;100528.50;;;2.05;100.00
21760;BME280;11041;50.854;20.580;2023-02-13T04:58:56;100529.53;;;2.04;100.00
21760;BME280;11041;50.854;20.580;2023-02-13T05:01:22;100520.75;;;2.02;100.00
21760;BME280;11041;50.854;20.580;2023-02-13T05:03:49;100526.59;;;2.05;100.00
21760;BME280;11041;50.854;20.580;2023-02-13T05:06:15;100525.53;;;2.06;100.00
21760;BME280;11041;50.854;20.580;2023-02-13T05:08:43;100518.00;;;2.15;100.00
21760;BME280;11041;50.854;20.580;2023-02-13T05:11:09;100515.94;;;2.10;100.00
21760;BME280;11041;50.854;20.580;2023-02-13T05:13:36;100514.28;;;2.09;100.00
21760;BME280;11041;50.854;20.580;2023-02-13T05:16:02;100509.09;;;2.01;100.00
21760;BME280;11041;50.854;20.580;2023-02-13T05:18:29;100524.72;;;2.06;100.00
21760;BME280;11041;50.854;20.580;2023-02-13T05:20:55;100526.59;;;2.05;100.00
21760;BME280;11041;50.854;20.580;2023-02-13T05:23:41;100519.94;;;2.01;100.00
21760;BME280;11041;50.854;20.580;2023-02-13T05:26:07;100519.13;;;2.01;100.00
21760;BME280;11041;50.854;20.580;2023-02-13T05:28:33;100525.81;;;1.98;100.00
21760;BME280;11041;50.854;20.580;2023-02-13T05:31:18;100535.84;;;1.91;100.00
21760;BME280;11041;50.854;20.580;2023-02-13T05:33:45;100533.94;;;1.91;100.00
21760;BME280;11041;50.854;20.580;2023-02-13T05:36:11;100523.72;;;2.00;100.00
21760;BME280;11041;50.854;20.580;2023-02-13T05:38:38;100513.50;;;2.02;100.00
21760;BME280;11041;50.854;20.580;2023-02-13T05:41:06;100533.47;;;2.08;100.00
21760;BME280;11041;50.854;20.580;2023-02-13T05:43:33;100532.47;;;2.02;100.00
21760;BME280;11041;50.854;20.580;2023-02-13T05:46:08;100528.94;;;1.95;100.00
21760;BME280;11041;50.854;20.580;2023-02-13T05:48:35;100529.78;;;1.96;100.00
21760;BME280;11041;50.854;20.580;2023-02-13T05:51:02;100523.53;;;1.88;100.00
21760;BME280;11041;50.854;20.580;2023-02-13T05:53:29;100525.00;;;1.91;100.00
21760;BME280;11041;50.854;20.580;2023-02-13T05:55:56;100529.31;;;2.05;100.00
21760;BME280;11041;50.854;20.580;2023-02-13T05:58:22;100538.09;;;2.01;100.00
21760;BME280;11041;50.854;20.580;2023-02-13T06:00:49;100546.41;;;2.06;100.00
21760;BME280;11041;50.854;20.580;2023-02-13T06:03:15;100535.59;;;1.99;100.00
21760;BME280;11041;50.854;20.580;2023-02-13T06:05:42;100544.53;;;2.06;100.00
21760;BME280;11041;50.854;20.580;2023-02-13T06:08:08;100547.25;;;2.06;100.00
21760;BME280;11041;50.854;20.580;2023-02-13T06:10:38;100527.88;;;2.03;100.00
21760;BME280;11041;50.854;20.580;2023-02-13T06:13:04;100537.00;;;2.08;100.00
21760;BME280;11041;50.854;20.580;2023-02-13T06:15:31;100539.34;;;2.05;100.00
21760;BME280;11041;50.854;20.580;2023-02-13T06:17:58;100542.66;;;2.07;100.00
21760;BME280;11041;50.854;20.580;2023-02-13T06:20:24;100547.84;;;2.15;100.00
21760;BME280;11041;50.854;20.580;2023-02-13T06:22:52;100545.94;;;2.16;100.00
21760;BME280;11041;50.854;20.580;2023-02-13T06:25:19;100543.03;;;2.17;100.00
21760;BME280;11041;50.854;20.580;2023-02-13T06:27:46;100551.16;;;2.24;100.00
21760;BME280;11041;50.854;20.580;2023-02-13T06:30:15;100543.84;;;2.18;100.00
21760;BME280;11041;50.854;20.580;2023-02-13T06:32:42;100545.91;;;2.22;100.00
21760;BME280;11041;50.854;20.580;2023-02-13T06:35:09;100542.41;;;2.15;100.00
21760;BME280;11041;50.854;20.580;2023-02-13T06:37:35;100541.31;;;2.23;100.00
21760;BME280;11041;50.854;20.580;2023-02-13T06:40:03;100550.88;;;2.32;100.00
21760;BME280;11041;50.854;20.580;2023-02-13T06:42:30;100537.38;;;2.19;100.00
21760;BME280;11041;50.854;20.580;2023-02-13T06:44:57;100532.59;;;2.14;100.00
21760;BME280;11041;50.854;20.580;2023-02-13T06:47:24;100535.47;;;2.26;100.00
21760;BME280;11041;50.854;20.580;2023-02-13T06:49:50;100529.66;;;2.22;100.00
21760;BME280;11041;50.854;20.580;2023-02-13T06:52:17;100531.31;;;2.23;100.00
21760;BME280;11041;50.854;20.580;2023-02-13T06:54:44;100541.75;;;2.26;100.00
21760;BME280;11041;50.854;20.580;2023-02-13T06:57:11;100529.66;;;2.22;100.00
21760;BME280;11041;50.854;20.580;2023-02-13T06:59:37;100543.84;;;2.24;100.00
21760;BME280;11041;50.854;20.580;2023-02-13T07:02:04;100532.56;;;2.21;100.00
21760;BME280;11041;50.854;20.580;2023-02-13T07:04:31;100532.75;;;2.26;100.00
21760;BME280;11041;50.854;20.580;2023-02-13T07:06:57;100547.56;;;2.23;100.00
21760;BME280;11041;50.854;20.580;2023-02-13T07:09:24;100548.19;;;2.25;100.00
21760;BME280;11041;50.854;20.580;2023-02-13T07:11:51;100535.91;;;2.23;100.00
21760;BME280;11041;50.854;20.580;2023-02-13T07:14:17;100534.59;;;2.32;100.00
21760;BME280;11041;50.854;20.580;2023-02-13T07:16:44;100540.81;;;2.39;100.00
21760;BME280;11041;50.854;20.580;2023-02-13T07:19:10;100539.22;;;2.31;100.00
21760;BME280;11041;50.854;20.580;2023-02-13T07:21:37;100548.75;;;2.41;100.00
21760;BME280;11041;50.854;20.580;2023-02-13T07:24:04;100545.38;;;2.45;100.00
21760;BME280;11041;50.854;20.580;2023-02-13T07:26:31;100541.59;;;2.53;100.00
21760;BME280;11041;50.854;20.580;2023-02-13T07:28:57;100537.44;;;2.50;100.00
21760;BME280;11041;50.854;20.580;2023-02-13T07:31:24;100542.59;;;2.59;100.00
21760;BME280;11041;50.854;20.580;2023-02-13T07:33:51;100537.97;;;2.59;100.00
21760;BME280;11041;50.854;20.580;2023-02-13T07:36:18;100548.22;;;2.57;100.00
21760;BME280;11041;50.854;20.580;2023-02-13T07:38:44;100529.66;;;2.54;100.00
21760;BME280;11041;50.854;20.580;2023-02-13T07:41:10;100534.44;;;2.59;100.00
21760;BME280;11041;50.854;20.580;2023-02-13T07:43:36;100536.34;;;2.58;100.00
21760;BME280;11041;50.854;20.580;2023-02-13T07:46:03;100553.75;;;2.75;100.00
21760;BME280;11041;50.854;20.580;2023-02-13T07:48:30;100541.00;;;2.76;100.00
21760;BME280;11041;50.854;20.580;2023-02-13T07:51:04;100539.50;;;2.80;100.00
21760;BME280;11041;50.854;20.580;2023-02-13T07:53:31;100531.31;;;2.87;100.00
21760;BME280;11041;50.854;20.580;2023-02-13T07:55:58;100523.34;;;2.92;100.00
21760;BME280;11041;50.854;20.580;2023-02-13T07:58:24;100523.72;;;2.95;100.00
21760;BME280;11041;50.854;20.580;2023-02-13T08:00:50;100524.13;;;2.99;100.00
21760;BME280;11041;50.854;20.580;2023-02-13T08:03:18;100531.38;;;3.05;100.00
21760;BME280;11041;50.854;20.580;2023-02-13T08:05:47;100533.66;;;3.08;99.89
21760;BME280;11041;50.854;20.580;2023-02-13T08:08:15;100517.78;;;3.05;100.00
21760;BME280;11041;50.854;20.580;2023-02-13T08:10:42;100520.06;;;3.08;100.00
21760;BME280;11041;50.854;20.580;2023-02-13T08:13:27;100528.59;;;3.12;100.00
21760;BME280;11041;50.854;20.580;2023-02-13T08:15:54;100522.34;;;3.11;99.99
21760;BME280;11041;50.854;20.580;2023-02-13T08:18:20;100518.34;;;3.14;100.00
21760;BME280;11041;50.854;20.580;2023-02-13T08:20:47;100524.00;;;3.12;100.00
21760;BME280;11041;50.854;20.580;2023-02-13T08:23:13;100540.03;;;3.20;100.00
21760;BME280;11041;50.854;20.580;2023-02-13T08:25:40;100528.91;;;3.22;99.21
21760;BME280;11041;50.854;20.580;2023-02-13T08:28:07;100534.28;;;3.29;99.68
21760;BME280;11041;50.854;20.580;2023-02-13T08:30:33;100526.13;;;3.29;100.00
21760;BME280;11041;50.854;20.580;2023-02-13T08:33:00;100528.59;;;3.37;99.43
21760;BME280;11041;50.854;20.580;2023-02-13T08:35:27;100524.97;;;3.43;99.64
21760;BME280;11041;50.854;20.580;2023-02-13T08:38:00;100515.38;;;3.40;99.59
21760;BME280;11041;50.854;20.580;2023-02-13T08:40:27;100514.47;;;3.47;99.15
21760;BME280;11041;50.854;20.580;2023-02-13T08:43:05;100517.50;;;3.57;98.61
21760;BME280;11041;50.854;20.580;2023-02-13T08:45:32;100508.22;;;3.65;97.84
21760;BME280;11041;50.854;20.580;2023-02-13T08:47:59;100519.47;;;3.68;97.63
21760;BME280;11041;50.854;20.580;2023-02-13T08:50:27;100515.84;;;3.74;97.79
21760;BME280;11041;50.854;20.580;2023-02-13T08:52:54;100503.91;;;3.75;97.53
21760;BME280;11041;50.854;20.580;2023-02-13T08:55:21;100521.66;;;3.78;97.40
21760;BME280;11041;50.854;20.580;2023-02-13T08:57:47;100525.44;;;3.77;97.09
21760;BME280;11041;50.854;20.580;2023-02-13T09:00:14;100524.97;;;3.80;97.47
21760;BME280;11041;50.854;20.580;2023-02-13T09:02:40;100522.63;;;3.83;97.54
21760;BME280;11041;50.854;20.580;2023-02-13T09:05:07;100521.34;;;3.86;97.23
21760;BME280;11041;50.854;20.580;2023-02-13T09:07:33;100520.81;;;3.96;96.34
21760;BME280;11041;50.854;20.580;2023-02-13T09:10:00;100522.25;;;3.98;95.37
21760;BME280;11041;50.854;20.580;2023-02-13T09:12:26;100522.47;;;3.97;96.31
21760;BME280;11041;50.854;20.580;2023-02-13T09:14:53;100519.66;;;4.03;96.33
21760;BME280;11041;50.854;20.580;2023-02-13T09:17:20;100531.53;;;4.09;95.74
21760;BME280;11041;50.854;20.580;2023-02-13T09:19:46;100512.38;;;4.16;94.94
21760;BME280;11041;50.854;20.580;2023-02-13T09:22:13;100516.31;;;4.20;94.75
21760;BME280;11041;50.854;20.580;2023-02-13T09:24:42;100513.81;;;4.18;95.10
21760;BME280;11041;50.854;20.580;2023-02-13T09:27:08;100509.22;;;4.19;95.13
21760;BME280;11041;50.854;20.580;2023-02-13T09:29:35;100501.41;;;4.22;93.67
21760;BME280;11041;50.854;20.580;2023-02-13T09:32:03;100507.13;;;4.33;93.69
21760;BME280;11041;50.854;20.580;2023-02-13T09:34:39;100504.19;;;4.34;92.97
21760;BME280;11041;50.854;20.580;2023-02-13T09:37:06;100498.28;;;4.37;93.26
21760;BME280;11041;50.854;20.580;2023-02-13T09:39:32;100485.59;;;4.31;93.08
21760;BME280;11041;50.854;20.580;2023-02-13T09:42:00;100489.28;;;4.37;93.41
21760;BME280;11041;50.854;20.580;2023-02-13T09:44:40;100497.97;;;4.45;92.92
21760;BME280;11041;50.854;20.580;2023-02-13T09:47:34;100487.81;;;4.53;92.66
21760;BME280;11041;50.854;20.580;2023-02-13T09:52:37;100473.97;;;4.66;91.74
21760;BME280;11041;50.854;20.580;2023-02-13T09:55:42;100479.22;;;4.79;90.55
21760;BME280;11041;50.854;20.580;2023-02-13T09:58:46;100465.09;;;4.70;90.01
21760;BME280;11041;50.854;20.580;2023-02-13T10:01:31;100462.84;;;4.67;89.99
21760;BME280;11041;50.854;20.580;2023-02-13T10:04:40;100449.97;;;4.75;90.12
21760;BME280;11041;50.854;20.580;2023-02-13T10:15:50;100462.19;;;4.96;88.43
21760;BME280;11041;50.854;20.580;2023-02-13T10:18:33;100451.28;;;4.96;88.88
21760;BME280;11041;50.854;20.580;2023-02-13T10:21:06;100450.31;;;5.02;87.49
21760;BME280;11041;50.854;20.580;2023-02-13T10:23:48;100440.84;;;5.04;87.99
21760;BME280;11041;50.854;20.580;2023-02-13T10:26:19;100452.22;;;5.13;88.07
21760;BME280;11041;50.854;20.580;2023-02-13T10:29:05;100448.19;;;5.16;87.35
21760;BME280;11041;50.854;20.580;2023-02-13T10:31:58;100450.22;;;5.20;86.58
21760;BME280;11041;50.854;20.580;2023-02-13T10:34:36;100457.56;;;5.20;86.27
21760;BME280;11041;50.854;20.580;2023-02-13T10:37:14;100461.00;;;5.15;86.51
21760;BME280;11041;50.854;20.580;2023-02-13T10:39:46;100441.66;;;5.05;86.87
21760;BME280;11041;50.854;20.580;2023-02-13T10:42:40;100462.31;;;5.01;87.14
21760;BME280;11041;50.854;20.580;2023-02-13T10:48:34;100441.53;;;4.76;90.51
21760;BME280;11041;50.854;20.580;2023-02-13T10:51:18;100448.88;;;4.64;90.64
21760;BME280;11041;50.854;20.580;2023-02-13T10:54:28;100449.13;;;4.62;92.92
21760;BME280;11041;50.854;20.580;2023-02-13T10:57:03;100453.59;;;4.57;93.55
21760;BME280;11041;50.854;20.580;2023-02-13T11:00:04;100450.63;;;4.46;94.05
21760;BME280;11041;50.854;20.580;2023-02-13T11:02:34;100446.97;;;4.53;95.11
21760;BME280;11041;50.854;20.580;2023-02-13T11:05:14;100442.81;;;4.50;95.19
21760;BME280;11041;50.854;20.580;2023-02-13T11:07:44;100453.91;;;4.37;95.10
21760;BME280;11041;50.854;20.580;2023-02-13T11:10:18;100444.31;;;4.34;95.85
21760;BME280;11041;50.854;20.580;2023-02-13T11:12:46;100446.44;;;4.32;96.01
21760;BME280;11041;50.854;20.580;2023-02-13T11:15:29;100448.56;;;4.30;96.66
21760;BME280;11041;50.854;20.580;2023-02-13T11:18:20;100450.69;;;4.28;97.32
21760;BME280;11041;50.854;20.580;2023-02-13T11:28:59;100444.97;;;4.18;98.45
21760;BME280;11041;50.854;20.580;2023-02-13T11:31:33;100431.47;;;4.11;98.00
21760;BME280;11041;50.854;20.580;2023-02-13T11:34:24;100441.06;;;4.14;98.61
21760;BME280;11041;50.854;20.580;2023-02-13T11:37:16;100441.78;;;4.09;99.07
21760;BME280;11041;50.854;20.580;2023-02-13T11:39:48;100439.41;;;4.13;98.52
21760;BME280;11041;50.854;20.580;2023-02-13T11:42:35;100450.78;;;4.21;98.96
21760;BME280;11041;50.854;20.580;2023-02-13T11:45:07;100454.81;;;4.19;98.56
21760;BME280;11041;50.854;20.580;2023-02-13T11:47:45;100443.19;;;4.12;98.98
21760;BME280;11041;50.854;20.580;2023-02-13T11:53:26;100441.66;;;4.16;99.15
21760;BME280;11041;50.854;20.580;2023-02-13T11:56:14;100441.66;;;4.16;98.66
21760;BME280;11041;50.854;20.580;2023-02-13T11:58:42;100446.25;;;4.15;99.80
21760;BME280;11041;50.854;20.580;2023-02-13T12:01:27;100440.72;;;4.22;99.75
21760;BME280;11041;50.854;20.580;2023-02-13T12:07:04;100425.13;;;4.29;99.42
21760;BME280;11041;50.854;20.580;2023-02-13T12:09:39;100414.47;;;4.27;99.53
21760;BME280;11041;50.854;20.580;2023-02-13T12:12:15;100421.25;;;4.37;99.26
21760;BME280;11041;50.854;20.580;2023-02-13T12:14:45;100412.59;;;4.40;98.82
21760;BME280;11041;50.854;20.580;2023-02-13T12:17:22;100399.84;;;4.40;98.99
21760;BME280;11041;50.854;20.580;2023-02-13T12:19:52;100401.72;;;4.40;99.50
21760;BME280;11041;50.854;20.580;2023-02-13T12:22:35;100398.41;;;4.49;99.19
21760;BME280;11041;50.854;20.580;2023-02-13T12:27:47;100413.44;;;4.52;97.34
21760;BME280;11041;50.854;20.580;2023-02-13T12:35:03;100397.56;;;4.37;97.52
21760;BME280;11041;50.854;20.580;2023-02-13T12:37:54;100408.59;;;4.42;97.79
21760;BME280;11041;50.854;20.580;2023-02-13T12:41:26;100403.03;;;4.49;97.94
21760;BME280;11041;50.854;20.580;2023-02-13T13:04:23;100394.41;;;4.64;95.51
21760;BME280;11041;50.854;20.580;2023-02-13T13:07:43;100385.78;;;4.67;94.12
21760;BME280;11041;50.854;20.580;2023-02-13T13:10:28;100387.19;;;4.58;95.47
21760;BME280;11041;50.854;20.580;2023-02-13T13:23:21;100363.75;;;4.33;97.46
21760;BME280;11041;50.854;20.580;2023-02-13T13:26:32;100367.91;;;4.47;97.52
21760;BME280;11041;50.854;20.580;2023-02-13T13:32:06;100365.50;;;4.39;95.23
21760;BME280;11041;50.854;20.580;2023-02-13T13:34:38;100382.81;;;4.33;95.34
21760;BME280;11041;50.854;20.580;2023-02-13T13:40:41;100378.50;;;4.14;94.00
21760;BME280;11041;50.854;20.580;2023-02-13T13:43:21;100381.75;;;4.04;94.05
21760;BME280;11041;50.854;20.580;2023-02-13T13:49:19;100382.63;;;4.04;94.80
21760;BME280;11041;50.854;20.580;2023-02-13T13:51:47;100374.91;;;4.01;93.83
21760;BME280;11041;50.854;20.580;2023-02-13T13:57:04;100349.50;;;3.77;93.71
21760;BME280;11041;50.854;20.580;2023-02-13T14:06:04;100357.31;;;3.74;92.67
21760;BME280;11041;50.854;20.580;2023-02-13T14:11:39;100349.38;;;3.72;92.48
21760;BME280;11041;50.854;20.580;2023-02-13T14:16:55;100350.88;;;3.56;93.45
21760;BME280;11041;50.854;20.580;2023-02-13T14:19:34;100349.06;;;3.50;93.44
21760;BME280;11041;50.854;20.580;2023-02-13T14:22:34;100349.19;;;3.55;93.24
21760;BME280;11041;50.854;20.580;2023-02-13T14:25:06;100336.44;;;3.56;93.34
21760;BME280;11041;50.854;20.580;2023-02-13T14:28:03;100329.00;;;3.51;93.25
21760;BME280;11041;50.854;20.580;2023-02-13T14:30:37;100321.66;;;3.52;94.12
21760;BME280;11041;50.854;20.580;2023-02-13T14:33:19;100339.63;;;3.53;93.21
21760;BME280;11041;50.854;20.580;2023-02-13T14:36:05;100340.00;;;3.56;92.92
21760;BME280;11041;50.854;20.580;2023-02-13T14:38:33;100345.44;;;3.56;92.98
21760;BME280;11041;50.854;20.580;2023-02-13T14:41:00;100347.47;;;3.61;93.70
21760;BME280;11041;50.854;20.580;2023-02-13T14:43:54;100331.38;;;3.59;93.58
21760;BME280;11041;50.854;20.580;2023-02-13T14:46:33;100336.59;;;3.61;92.69
21760;BME280;11041;50.854;20.580;2023-02-13T14:49:33;100338.31;;;3.55;92.28
21760;BME280;11041;50.854;20.580;2023-02-13T14:52:15;100338.78;;;3.52;91.22
21760;BME280;11041;50.854;20.580;2023-02-13T14:54:50;100330.19;;;3.55;91.12
21760;BME280;11041;50.854;20.580;2023-02-13T15:00:42;100313.25;;;3.53;90.24
21760;BME280;11041;50.854;20.580;2023-02-13T15:03:43;100330.84;;;3.51;90.18
21760;BME280;11041;50.854;20.580;2023-02-13T15:06:30;100336.75;;;3.48;90.42
21760;BME280;11041;50.854;20.580;2023-02-13T15:09:04;100331.31;;;3.48;90.80
21760;BME280;11041;50.854;20.580;2023-02-13T15:11:43;100323.88;;;3.43;90.53
21760;BME280;11041;50.854;20.580;2023-02-13T15:17:32;100335.94;;;3.47;90.70
21760;BME280;11041;50.854;20.580;2023-02-13T15:20:20;100335.13;;;3.47;90.25
21760;BME280;11041;50.854;20.580;2023-02-13T15:22:49;100343.28;;;3.47;90.42
21760;BME280;11041;50.854;20.580;2023-02-13T15:25:39;100344.78;;;3.42;90.63
21760;BME280;11041;50.854;20.580;2023-02-13T15:28:23;100339.28;;;3.31;90.84
21760;BME280;11041;50.854;20.580;2023-02-13T15:31:20;100350.28;;;3.36;90.72
21760;BME280;11041;50.854;20.580;2023-02-13T15:33:49;100341.25;;;3.24;90.04
21760;BME280;11041;50.854;20.580;2023-02-13T15:36:23;100341.56;;;3.15;90.25
21760;BME280;11041;50.854;20.580;2023-02-13T15:39:04;100354.09;;;3.16;90.43
21760;BME280;11041;50.854;20.580;2023-02-13T15:41:48;100333.97;;;3.06;91.08